createdAt,value
2019-05-02T00:02:13.571Z,7.97
2019-05-02T00:04:45.518Z,8.43
2019-05-02T00:07:20.227Z,8.33
2019-05-02T00:09:51.495Z,9.33
2019-05-02T00:12:24.190Z,8.43
2019-05-02T00:14:56.528Z,7.80
2019-05-02T00:17:30.426Z,7.73
2019-05-02T00:20:02.442Z,8.57
2019-05-02T00:22:34.722Z,8.47
2019-05-02T00:25:11.154Z,9.17
2019-05-02T00:27:41.739Z,8.60
2019-05-02T00:30:15.702Z,9.10
2019-05-02T00:32:47.675Z,9.27
2019-05-02T00:35:20.561Z,8.77
2019-05-02T00:37:52.517Z,9.07
2019-05-02T00:40:26.111Z,9.30
2019-05-02T00:42:59.622Z,9.47
2019-05-02T00:45:32.332Z,9.37
2019-05-02T00:48:06.746Z,9.87
2019-05-02T00:50:40.723Z,9.33
2019-05-02T00:53:13.635Z,8.80
2019-05-02T00:55:45.559Z,9.27
2019-05-02T00:58:17.572Z,9.50
2019-05-02T01:01:09.486Z,9.47
2019-05-02T01:03:47.074Z,9.80
2019-05-02T01:06:17.121Z,8.50
2019-05-02T01:08:49.050Z,8.53
2019-05-02T01:11:21.005Z,8.77
2019-05-02T01:13:55.835Z,8.30
2019-05-02T01:16:26.979Z,7.83
2019-05-02T01:18:59.195Z,8.47
2019-05-02T01:21:33.943Z,7.97
2019-05-02T01:24:04.980Z,8.33
2019-05-02T01:26:44.711Z,7.70
2019-05-02T01:29:29.865Z,7.27
2019-05-02T01:32:06.809Z,6.87
2019-05-02T01:34:54.423Z,7.50
2019-05-02T01:37:42.668Z,8.13
2019-05-02T01:40:17.751Z,7.33
2019-05-02T01:42:51.102Z,8.47
2019-05-02T01:45:23.550Z,7.37
2019-05-02T01:47:55.493Z,7.27
2019-05-02T01:50:28.966Z,6.83
2019-05-02T01:53:01.108Z,7.53
2019-05-02T01:55:33.056Z,7.53
2019-05-02T01:58:05.001Z,7.57
2019-05-02T02:00:40.837Z,7.03
2019-05-02T02:03:10.598Z,7.30
2019-05-02T02:05:43.007Z,7.40
2019-05-02T02:08:14.955Z,7.87
2019-05-02T02:10:50.683Z,7.13
2019-05-02T02:13:20.554Z,7.83
2019-05-02T02:15:52.526Z,8.90
2019-05-02T02:18:27.722Z,7.50
2019-05-02T02:21:03.647Z,7.77
2019-05-02T02:23:37.554Z,7.00
2019-05-02T02:26:14.037Z,8.10
2019-05-02T02:28:45.979Z,7.70
2019-05-02T02:31:21.408Z,8.23
2019-05-02T02:33:53.353Z,8.03
2019-05-02T02:36:31.272Z,8.10
2019-05-02T02:39:17.139Z,8.10
2019-05-02T02:41:52.382Z,8.47
2019-05-02T02:44:24.578Z,7.77
2019-05-02T02:46:56.553Z,8.17
2019-05-02T02:49:28.525Z,8.33
2019-05-02T02:52:04.861Z,8.53
2019-05-02T02:54:36.622Z,8.30
2019-05-02T02:59:39.100Z,7.60
2019-05-02T03:02:12.248Z,8.23
2019-05-02T03:04:46.421Z,7.83
2019-05-02T03:07:25.955Z,8.03
2019-05-02T03:09:52.249Z,8.33
2019-05-02T03:12:26.211Z,7.97
2019-05-02T03:14:59.784Z,7.93
2019-05-02T03:17:31.881Z,7.77
2019-05-02T03:20:08.568Z,8.13
2019-05-02T03:22:41.975Z,8.37
2019-05-02T03:25:18.142Z,8.43
2019-05-02T03:27:48.413Z,8.27
2019-05-02T03:30:32.356Z,8.70
2019-05-02T03:33:06.283Z,8.10
2019-05-02T03:35:42.917Z,8.80
2019-05-02T03:38:02.239Z,9.67
2019-05-02T03:40:38.976Z,9.87
2019-05-02T03:43:08.713Z,9.03
2019-05-02T03:45:43.128Z,9.30
2019-05-02T03:48:18.389Z,9.07
2019-05-02T03:50:49.251Z,9.17
2019-05-02T03:53:25.262Z,9.27
2019-05-02T03:55:58.175Z,8.40
2019-05-02T03:58:31.556Z,9.10
2019-05-02T04:01:04.048Z,9.53
2019-05-02T04:03:40.754Z,9.80
2019-05-02T04:06:13.804Z,9.90
2019-05-02T04:08:45.288Z,9.30
2019-05-02T04:11:20.983Z,9.70
2019-05-02T04:13:55.236Z,9.40
2019-05-02T04:16:29.592Z,9.03
2019-05-02T04:19:03.075Z,9.60
2019-05-02T04:21:35.738Z,10.23
2019-05-02T04:24:15.195Z,9.30
2019-05-02T04:26:51.990Z,9.90
2019-05-02T04:29:16.898Z,9.03
2019-05-02T04:31:48.907Z,9.90
2019-05-02T04:34:21.127Z,9.93
2019-05-02T04:37:01.319Z,10.07
2019-05-02T04:39:31.497Z,9.33
2019-05-02T04:42:12.940Z,10.27
2019-05-02T04:44:44.371Z,10.97
2019-05-02T04:47:17.546Z,10.17
2019-05-02T04:49:49.112Z,9.93
2019-05-02T04:52:22.665Z,11.13
2019-05-02T04:55:08.402Z,10.57
2019-05-02T04:57:37.003Z,10.60
2019-05-02T05:00:06.255Z,11.17
2019-05-02T05:02:39.353Z,12.10
2019-05-02T05:05:10.074Z,11.37
2019-05-02T05:07:46.137Z,11.97
2019-05-02T05:10:18.332Z,12.17
2019-05-02T05:12:49.560Z,11.47
2019-05-02T05:15:35.929Z,11.57
2019-05-02T05:17:55.181Z,12.20
2019-05-02T05:22:58.089Z,11.53
2019-05-02T05:25:38.129Z,11.30
2019-05-02T05:28:11.768Z,11.97
2019-05-02T05:30:46.701Z,11.97
2019-05-02T05:33:18.257Z,9.70
2019-05-02T05:35:52.525Z,9.10
2019-05-02T05:38:28.590Z,8.30
2019-05-02T05:40:58.114Z,8.00
2019-05-02T05:43:30.258Z,7.60
2019-05-02T05:46:12.364Z,7.37
2019-05-02T05:48:37.182Z,8.03
2019-05-02T05:51:11.827Z,7.80
2019-05-02T05:53:43.161Z,8.03
2019-05-02T05:56:15.114Z,7.43
2019-05-02T05:58:52.425Z,7.20
2019-05-02T06:01:26.135Z,7.20
2019-05-02T06:03:55.120Z,8.13
2019-05-02T06:06:27.543Z,8.40
2019-05-02T06:08:59.870Z,10.27
2019-05-02T06:11:32.171Z,10.70
2019-05-02T06:14:06.260Z,10.67
2019-05-02T06:16:38.686Z,10.33
2019-05-02T06:19:17.895Z,8.23
2019-05-02T06:21:47.785Z,8.40
2019-05-02T06:24:19.750Z,7.10
2019-05-02T06:26:52.002Z,7.93
2019-05-02T06:29:23.969Z,6.60
2019-05-02T06:31:59.000Z,7.40
2019-05-02T06:34:30.963Z,6.83
2019-05-02T06:37:03.249Z,6.60
2019-05-02T06:39:35.199Z,6.93
2019-05-02T06:42:07.519Z,6.70
2019-05-02T06:44:39.486Z,6.17
2019-05-02T06:47:11.503Z,6.40
2019-05-02T06:49:43.751Z,6.00
2019-05-02T06:52:15.700Z,7.20
2019-05-02T06:54:47.913Z,6.10
2019-05-02T06:57:24.089Z,6.63
2019-05-02T06:59:56.499Z,6.13
2019-05-02T07:02:33.589Z,5.70
2019-05-02T07:05:02.249Z,6.37
2019-05-02T07:07:36.998Z,5.47
2019-05-02T07:10:09.545Z,5.67
2019-05-02T07:12:41.506Z,5.77
2019-05-02T07:15:33.567Z,5.83
2019-05-02T07:18:10.692Z,5.77
2019-05-02T07:20:42.465Z,5.77
2019-05-02T07:23:16.240Z,6.50
2019-05-02T07:25:48.449Z,5.37
2019-05-02T07:28:20.404Z,6.50
2019-05-02T07:30:54.592Z,5.93
2019-05-02T07:33:26.003Z,6.37
2019-05-02T07:36:01.410Z,5.77
2019-05-02T07:38:33.583Z,6.03
2019-05-02T07:41:05.814Z,5.83
2019-05-02T07:43:39.500Z,6.33
2019-05-02T07:46:11.460Z,6.60
2019-05-02T07:48:43.686Z,5.57
2019-05-02T07:51:17.297Z,5.70
2019-05-02T07:53:49.829Z,5.70
2019-05-02T07:56:23.693Z,5.40
2019-05-02T07:58:55.715Z,6.57
2019-05-02T08:01:27.685Z,6.90
2019-05-02T08:04:04.247Z,5.50
2019-05-02T08:06:35.321Z,5.53
2019-05-02T08:09:09.611Z,5.60
2019-05-02T08:11:43.085Z,5.57
2019-05-02T08:14:15.052Z,5.53
2019-05-02T08:17:04.425Z,5.43
2019-05-02T08:19:23.894Z,5.80
2019-05-02T08:21:56.108Z,5.43
2019-05-02T08:24:28.062Z,5.97
2019-05-02T08:27:07.579Z,5.90
2019-05-02T08:29:40.072Z,6.00
2019-05-02T08:32:13.290Z,6.40
2019-05-02T08:34:50.928Z,5.83
2019-05-02T08:37:19.062Z,5.80
2019-05-02T08:39:51.020Z,6.13
2019-05-02T08:42:22.962Z,6.10
2019-05-02T08:44:56.239Z,5.90
2019-05-02T08:47:30.502Z,6.07
2019-05-02T08:50:02.782Z,5.27
2019-05-02T08:52:36.933Z,5.40
2019-05-02T08:55:09.755Z,5.70
2019-05-02T08:57:42.670Z,4.77
2019-05-02T09:00:15.830Z,5.57
2019-05-02T09:02:47.795Z,5.43
2019-05-02T09:05:19.746Z,4.77
2019-05-02T09:07:52.059Z,5.07
2019-05-02T09:10:24.012Z,4.80
2019-05-02T09:12:55.948Z,4.70
2019-05-02T09:15:27.899Z,4.50
2019-05-02T09:17:59.836Z,4.33
2019-05-02T09:20:31.984Z,4.87
2019-05-02T09:23:09.511Z,5.13
2019-05-02T09:25:42.837Z,4.77
2019-05-02T09:28:17.186Z,4.83
2019-05-02T09:30:48.034Z,4.87
2019-05-02T09:33:19.985Z,5.20
2019-05-02T09:35:51.959Z,4.63
2019-05-02T09:38:24.282Z,4.37
2019-05-02T09:40:59.060Z,4.60
2019-05-02T09:43:34.876Z,4.60
2019-05-02T09:46:07.362Z,4.53
2019-05-02T09:48:38.714Z,4.67
2019-05-02T09:51:16.756Z,4.27
2019-05-02T09:53:44.657Z,4.50
2019-05-02T09:56:16.619Z,4.80
2019-05-02T09:58:49.377Z,4.77
2019-05-02T10:01:29.363Z,4.37
2019-05-02T10:04:02.384Z,4.40
2019-05-02T10:06:34.722Z,4.50
2019-05-02T10:09:11.921Z,5.27
2019-05-02T10:11:43.431Z,4.70
2019-05-02T10:14:15.686Z,4.73
2019-05-02T10:16:47.887Z,4.30
2019-05-02T10:19:19.829Z,4.40
2019-05-02T10:21:55.026Z,4.60
2019-05-02T10:24:25.801Z,4.00
2019-05-02T10:27:04.209Z,4.23
2019-05-02T10:29:32.935Z,4.10
2019-05-02T10:32:07.688Z,3.90
2019-05-02T10:34:39.114Z,3.63
2019-05-02T10:37:13.987Z,3.53
2019-05-02T10:39:45.933Z,4.07
2019-05-02T10:42:18.542Z,3.50
2019-05-02T10:44:52.129Z,2.93
2019-05-02T10:47:24.265Z,3.23
2019-05-02T10:50:11.666Z,3.80
2019-05-02T10:52:44.100Z,3.80
2019-05-02T10:55:17.294Z,3.70
2019-05-02T10:57:52.169Z,4.27
2019-05-02T11:00:29.244Z,4.33
2019-05-02T11:03:06.781Z,3.83
2019-05-02T11:05:57.898Z,4.00
2019-05-02T11:08:27.804Z,3.57
2019-05-02T11:11:01.999Z,3.57
2019-05-02T11:13:38.140Z,3.37
2019-05-02T11:16:32.023Z,3.77
2019-05-02T11:19:07.948Z,3.33
2019-05-02T11:21:53.514Z,4.23
2019-05-02T11:24:14.450Z,4.07
2019-05-02T11:26:46.522Z,4.53
2019-05-02T11:29:18.470Z,3.80
2019-05-02T11:31:52.104Z,4.27
2019-05-02T11:34:24.374Z,3.80
2019-05-02T11:36:59.011Z,4.10
2019-05-02T11:39:37.498Z,4.40
2019-05-02T11:42:05.322Z,4.60
2019-05-02T11:44:37.295Z,4.30
2019-05-02T11:47:09.375Z,4.70
2019-05-02T11:49:42.528Z,4.77
2019-05-02T11:52:15.589Z,4.60
2019-05-02T11:54:48.662Z,4.97
2019-05-02T11:57:28.331Z,5.23
2019-05-02T11:59:59.328Z,5.37
2019-05-02T12:02:37.736Z,5.33
2019-05-02T12:05:12.789Z,5.03
2019-05-02T12:07:44.845Z,5.17
2019-05-02T12:10:21.636Z,5.20
2019-05-02T12:12:53.623Z,5.10
2019-05-02T12:15:26.202Z,5.10
2019-05-02T12:17:59.649Z,4.43
2019-05-02T12:20:33.930Z,4.83
2019-05-02T12:23:05.741Z,5.23
2019-05-02T12:25:37.668Z,5.10
2019-05-02T12:28:09.612Z,5.13
2019-05-02T12:30:42.014Z,4.77
2019-05-02T12:33:14.800Z,5.40
2019-05-02T12:35:46.751Z,6.20
2019-05-02T12:38:18.709Z,5.63
2019-05-02T12:40:52.060Z,5.50
2019-05-02T12:43:24.077Z,5.50
2019-05-02T12:45:56.020Z,5.10
2019-05-02T12:48:28.014Z,6.50
2019-05-02T12:51:01.911Z,5.17
2019-05-02T12:53:34.114Z,5.93
2019-05-02T12:56:06.127Z,6.03
2019-05-02T12:58:38.388Z,6.07
2019-05-02T13:01:12.290Z,6.27
2019-05-02T13:03:45.637Z,6.00
2019-05-02T13:06:17.578Z,6.43
2019-05-02T13:08:49.543Z,6.20
2019-05-02T13:11:32.123Z,6.00
2019-05-02T13:14:04.354Z,5.93
2019-05-02T13:16:36.375Z,6.50
2019-05-02T13:19:08.459Z,6.70
2019-05-02T13:21:44.993Z,6.50
2019-05-02T13:24:17.616Z,6.60
2019-05-02T13:26:53.945Z,5.87
2019-05-02T13:29:24.039Z,5.90
2019-05-02T13:32:03.557Z,6.00
2019-05-02T13:34:43.644Z,6.03
2019-05-02T13:37:15.410Z,6.07
2019-05-02T13:40:05.143Z,6.07
2019-05-02T13:42:37.164Z,6.90
2019-05-02T13:45:27.742Z,6.90
2019-05-02T13:47:59.775Z,6.30
2019-05-02T13:50:31.818Z,6.77
2019-05-02T13:53:03.820Z,6.67
2019-05-02T13:55:50.037Z,6.40
2019-05-02T13:58:29.337Z,5.37
2019-05-02T14:00:55.696Z,5.97
2019-05-02T14:03:27.656Z,6.07
2019-05-02T14:05:59.599Z,5.80
2019-05-02T14:08:39.400Z,6.00
2019-05-02T14:11:29.327Z,5.77
2019-05-02T14:14:01.969Z,5.83
2019-05-02T14:16:34.351Z,5.33
2019-05-02T14:19:06.298Z,5.53
2019-05-02T14:21:38.235Z,4.53
2019-05-02T14:24:11.785Z,4.60
2019-05-02T14:26:44.100Z,4.57
2019-05-02T14:29:16.488Z,5.20
2019-05-02T14:31:48.658Z,5.43
2019-05-02T14:34:34.478Z,4.50
2019-05-02T14:37:06.429Z,4.80
2019-05-02T14:39:38.404Z,4.50
2019-05-02T14:42:15.324Z,4.50
2019-05-02T14:45:04.431Z,4.00
2019-05-02T14:47:19.638Z,4.50
2019-05-02T14:49:52.250Z,4.40
2019-05-02T14:52:24.448Z,4.60
2019-05-02T14:54:56.373Z,5.07
2019-05-02T14:57:28.325Z,4.93
2019-05-02T15:00:03.098Z,5.93
2019-05-02T15:02:39.186Z,4.90
2019-05-02T15:05:12.686Z,5.70
2019-05-02T15:07:56.785Z,6.50
2019-05-02T15:10:28.981Z,6.00
2019-05-02T15:13:03.820Z,5.20
2019-05-02T15:15:40.786Z,6.37
2019-05-02T15:18:15.829Z,5.83
2019-05-02T15:20:42.429Z,5.97
2019-05-02T15:23:19.612Z,6.10
2019-05-02T15:25:52.529Z,6.17
2019-05-02T15:28:23.158Z,5.47
2019-05-02T15:31:05.710Z,6.17
2019-05-02T15:33:42.375Z,5.70
2019-05-02T15:36:14.350Z,6.30
2019-05-02T15:38:47.491Z,5.20
2019-05-02T15:41:19.544Z,5.33
2019-05-02T15:43:52.346Z,5.60
2019-05-02T15:46:28.139Z,5.10
2019-05-02T15:49:01.732Z,4.60
2019-05-02T15:51:32.866Z,4.40
2019-05-02T15:54:08.891Z,3.87
2019-05-02T15:57:00.793Z,4.20
2019-05-02T15:59:45.091Z,3.53
2019-05-02T16:02:09.532Z,2.80
2019-05-02T16:04:42.408Z,2.77
2019-05-02T16:07:14.369Z,2.17
2019-05-02T16:09:51.705Z,2.07
2019-05-02T16:12:22.232Z,2.40
2019-05-02T16:14:54.277Z,2.20
2019-05-02T16:17:27.857Z,1.80
2019-05-02T16:20:07.657Z,1.77
2019-05-02T16:22:38.317Z,2.00
2019-05-02T16:25:09.934Z,1.90
2019-05-02T16:27:52.731Z,2.20
2019-05-02T16:30:25.684Z,1.70
2019-05-02T16:32:59.358Z,1.80
2019-05-02T16:35:35.667Z,2.13
2019-05-02T16:38:07.611Z,2.23
2019-05-02T16:40:41.763Z,2.50
2019-05-02T16:43:13.280Z,1.93
2019-05-02T16:45:45.372Z,2.00
2019-05-02T16:48:18.997Z,2.27
2019-05-02T16:50:51.713Z,2.23
2019-05-02T16:53:26.215Z,2.10
2019-05-02T16:55:58.490Z,2.17
2019-05-02T16:58:31.917Z,2.47
2019-05-02T17:01:05.306Z,2.20
2019-05-02T17:03:37.619Z,2.40
2019-05-02T17:06:09.615Z,2.10
2019-05-02T17:08:58.328Z,1.90
2019-05-02T17:11:35.979Z,2.47
2019-05-02T17:14:12.124Z,2.00
2019-05-02T17:16:42.175Z,2.20
2019-05-02T17:19:14.187Z,2.23
2019-05-02T17:21:53.790Z,2.40
2019-05-02T17:24:24.597Z,2.63
2019-05-02T17:26:53.465Z,2.70
2019-05-02T17:29:25.417Z,2.57
2019-05-02T17:31:59.210Z,2.67
2019-05-02T17:34:34.835Z,2.77
2019-05-02T17:37:11.170Z,2.63
2019-05-02T17:39:42.690Z,2.50
2019-05-02T17:42:12.506Z,2.70
2019-05-02T17:44:44.942Z,2.60
2019-05-02T17:47:16.904Z,2.90
2019-05-02T17:49:57.906Z,3.37
2019-05-02T17:52:34.558Z,3.07
2019-05-02T17:55:07.823Z,3.30
2019-05-02T17:57:42.800Z,2.70
2019-05-02T18:00:17.806Z,2.93
2019-05-02T18:02:51.832Z,3.40
2019-05-02T18:05:26.543Z,3.10
2019-05-02T18:07:57.507Z,3.00
2019-05-02T18:10:29.830Z,3.23
2019-05-02T18:13:02.653Z,3.60
2019-05-02T18:15:36.294Z,3.50
2019-05-02T18:18:08.393Z,3.57
2019-05-02T18:20:42.878Z,3.37
2019-05-02T18:23:18.705Z,3.57
2019-05-02T18:25:47.990Z,3.33
2019-05-02T18:28:22.249Z,3.67
2019-05-02T18:30:57.131Z,4.10
2019-05-02T18:33:30.621Z,3.63
2019-05-02T18:36:02.890Z,3.57
2019-05-02T18:38:34.828Z,3.27
2019-05-02T18:41:07.955Z,3.17
2019-05-02T18:43:43.590Z,3.50
2019-05-02T18:46:13.702Z,3.43
2019-05-02T18:48:48.900Z,3.40
2019-05-02T18:51:19.322Z,3.30
2019-05-02T18:53:52.916Z,3.20
2019-05-02T18:56:25.093Z,3.83
2019-05-02T18:58:57.095Z,3.87
2019-05-02T19:01:29.461Z,4.00
2019-05-02T19:04:02.104Z,3.63
2019-05-02T19:06:36.207Z,3.60
2019-05-02T19:09:12.740Z,3.07
2019-05-02T19:11:44.813Z,3.30
2019-05-02T19:14:22.255Z,3.77
2019-05-02T19:16:52.126Z,3.37
2019-05-02T19:19:27.360Z,3.43
2019-05-02T19:21:57.977Z,3.33
2019-05-02T19:24:32.879Z,3.90
2019-05-02T19:27:04.351Z,3.00
2019-05-02T19:29:36.639Z,3.47
2019-05-02T19:32:12.238Z,2.87
2019-05-02T19:34:46.583Z,3.37
2019-05-02T19:37:18.655Z,3.40
2019-05-02T19:39:52.532Z,3.43
2019-05-02T19:42:26.239Z,3.30
2019-05-02T19:45:03.664Z,3.00
2019-05-02T19:47:32.579Z,2.47
2019-05-02T19:50:15.163Z,2.80
2019-05-02T19:52:47.119Z,2.83
2019-05-02T19:55:20.096Z,2.23
2019-05-02T19:57:56.619Z,2.27
2019-05-02T20:00:29.176Z,2.20
2019-05-02T20:03:04.214Z,1.87
2019-05-02T20:05:36.585Z,2.53
2019-05-02T20:08:09.747Z,1.73
2019-05-02T20:10:42.650Z,2.47
2019-05-02T20:13:14.708Z,2.33
2019-05-02T20:15:48.335Z,2.37
2019-05-02T20:18:20.282Z,2.60
2019-05-02T20:21:23.152Z,2.73
2019-05-02T20:23:46.241Z,2.60
2019-05-02T20:28:49.544Z,2.07
2019-05-02T20:31:21.740Z,2.63
2019-05-02T20:33:53.913Z,2.50
2019-05-02T20:36:25.863Z,2.90
2019-05-02T20:39:02.302Z,2.60
2019-05-02T20:41:34.595Z,3.10
2019-05-02T20:44:06.638Z,2.67
2019-05-02T20:46:38.564Z,2.40
2019-05-02T20:49:12.611Z,2.00
2019-05-02T20:51:44.409Z,2.60
2019-05-02T20:54:16.365Z,2.23
2019-05-02T20:56:48.295Z,2.90
2019-05-02T20:59:21.827Z,2.87
2019-05-02T21:01:53.882Z,2.70
2019-05-02T21:04:25.866Z,2.87
2019-05-02T21:07:09.129Z,2.87
2019-05-02T21:09:54.992Z,2.50
2019-05-02T21:12:27.058Z,2.33
2019-05-02T21:14:58.985Z,3.10
2019-05-02T21:17:32.695Z,3.00
2019-05-02T21:20:08.262Z,3.07
2019-05-02T21:22:42.050Z,2.17
2019-05-02T21:25:14.239Z,3.03
2019-05-02T21:27:46.186Z,2.70
2019-05-02T21:30:23.067Z,2.50
2019-05-02T21:32:57.704Z,2.73
2019-05-02T21:35:31.776Z,2.80
2019-05-02T21:38:03.714Z,2.20
2019-05-02T21:40:35.824Z,3.30
2019-05-02T21:43:07.832Z,2.70
2019-05-02T21:45:39.787Z,3.10
2019-05-02T21:48:12.034Z,2.87
2019-05-02T21:50:56.119Z,3.17
2019-05-02T21:53:49.156Z,2.90
2019-05-02T21:56:17.528Z,2.50
2019-05-02T21:59:03.296Z,3.13
2019-05-02T22:01:42.064Z,2.83
2019-05-02T22:04:14.084Z,2.90
2019-05-02T22:06:47.742Z,2.50
2019-05-02T22:09:22.856Z,2.53
2019-05-02T22:11:55.990Z,2.73
2019-05-02T22:14:28.413Z,2.43
2019-05-02T22:17:02.333Z,3.50
2019-05-02T22:19:36.027Z,2.73
2019-05-02T22:22:08.113Z,2.10
2019-05-02T22:24:42.101Z,2.40
2019-05-02T22:27:14.304Z,3.17
2019-05-02T22:29:47.789Z,2.43
2019-05-02T22:32:19.730Z,2.67
2019-05-02T22:34:55.901Z,2.63
2019-05-02T22:37:28.834Z,2.97
2019-05-02T22:40:03.939Z,3.10
2019-05-02T22:42:36.109Z,2.30
2019-05-02T22:45:09.381Z,2.53
2019-05-02T22:47:42.603Z,2.60
2019-05-02T22:50:14.810Z,3.03
2019-05-02T22:52:47.149Z,3.37
2019-05-02T22:55:19.108Z,2.50
2019-05-02T22:57:53.007Z,2.60
2019-05-02T23:00:26.989Z,2.87
2019-05-02T23:03:01.852Z,2.60
2019-05-02T23:05:37.253Z,3.13
2019-05-02T23:08:09.145Z,3.13
2019-05-02T23:10:43.994Z,2.90
2019-05-02T23:13:17.545Z,2.93
2019-05-02T23:15:49.520Z,3.43
2019-05-02T23:18:22.797Z,3.13
2019-05-02T23:20:54.797Z,3.27
2019-05-02T23:23:26.733Z,3.20
2019-05-02T23:26:15.526Z,3.27
2019-05-02T23:28:58.253Z,3.37
2019-05-02T23:31:31.753Z,2.60
2019-05-02T23:34:03.863Z,2.73
2019-05-02T23:36:35.790Z,3.00
2019-05-02T23:39:12.465Z,2.97
2019-05-02T23:41:44.671Z,3.03
2019-05-02T23:44:16.643Z,3.30
2019-05-02T23:46:48.570Z,3.17
2019-05-02T23:49:22.010Z,3.00
2019-05-02T23:51:54.272Z,3.10
2019-05-02T23:54:26.315Z,3.13
2019-05-02T23:56:58.267Z,3.30
2019-05-02T23:59:31.794Z,3.83
